createdAt,value
2023-03-03T00:02:11.187Z,19.23
2023-03-03T00:04:41.529Z,18.70
2023-03-03T00:07:11.924Z,17.70
2023-03-03T00:09:42.288Z,18.45
2023-03-03T00:12:25.994Z,18.20
2023-03-03T00:14:57.199Z,18.90
2023-03-03T00:17:29.308Z,18.38
2023-03-03T00:19:59.597Z,17.40
2023-03-03T00:22:33.235Z,18.02
2023-03-03T00:25:23.744Z,17.52
2023-03-03T00:27:56.668Z,18.20
2023-03-03T00:30:28.988Z,17.38
2023-03-03T00:32:59.391Z,17.05
2023-03-03T00:35:35.550Z,17.02
2023-03-03T00:38:15.540Z,16.27
2023-03-03T00:40:46.329Z,18.27
2023-03-03T00:43:22.882Z,17.98
2023-03-03T00:45:55.078Z,19.05
2023-03-03T00:48:28.346Z,18.10
2023-03-03T00:51:01.253Z,18.98
2023-03-03T00:53:33.999Z,18.58
2023-03-03T00:56:04.362Z,18.60
2023-03-03T00:58:37.441Z,17.63
2023-03-03T01:01:08.378Z,18.35
2023-03-03T01:03:46.313Z,17.80
2023-03-03T01:06:17.182Z,19.42
2023-03-03T01:08:49.057Z,19.05
2023-03-03T01:11:24.728Z,18.73
2023-03-03T01:13:58.482Z,17.92
2023-03-03T01:16:36.635Z,16.52
2023-03-03T01:19:08.423Z,17.13
2023-03-03T01:21:40.105Z,17.40
2023-03-03T01:24:10.921Z,17.90
2023-03-03T01:26:41.265Z,18.15
2023-03-03T01:29:14.243Z,18.10
2023-03-03T01:31:44.552Z,16.52
2023-03-03T01:34:15.207Z,17.20
2023-03-03T01:36:45.611Z,16.40
2023-03-03T01:39:16.058Z,18.33
2023-03-03T01:41:46.334Z,20.20
2023-03-03T01:44:20.317Z,17.77
2023-03-03T01:46:57.496Z,16.85
2023-03-03T01:49:31.890Z,18.13
2023-03-03T01:52:05.830Z,21.08
2023-03-03T01:54:47.309Z,19.70
2023-03-03T01:57:26.722Z,18.05
2023-03-03T02:00:02.062Z,20.27
2023-03-03T02:02:33.225Z,18.40
2023-03-03T02:05:03.880Z,19.35
2023-03-03T02:07:35.176Z,18.33
2023-03-03T02:10:10.470Z,17.88
2023-03-03T02:12:44.466Z,15.55
2023-03-03T02:15:27.687Z,17.48
2023-03-03T02:18:00.403Z,17.08
2023-03-03T02:20:45.342Z,17.98
2023-03-03T02:23:23.341Z,17.58
2023-03-03T02:26:14.970Z,18.38
2023-03-03T02:28:46.043Z,18.08
2023-03-03T02:31:19.525Z,18.25
2023-03-03T02:33:52.038Z,19.35
2023-03-03T02:36:25.103Z,18.13
2023-03-03T02:39:02.181Z,18.08
2023-03-03T02:41:40.976Z,17.40
2023-03-03T02:44:13.922Z,18.58
2023-03-03T02:46:47.837Z,18.52
2023-03-03T02:49:20.991Z,18.73
2023-03-03T02:51:51.637Z,19.75
2023-03-03T02:54:24.205Z,19.77
2023-03-03T02:56:57.640Z,18.80
2023-03-03T02:59:28.018Z,18.58
2023-03-03T03:02:00.910Z,18.77
2023-03-03T03:04:32.102Z,20.00
2023-03-03T03:07:02.637Z,20.70
2023-03-03T03:09:35.218Z,17.95
2023-03-03T03:12:08.683Z,18.33
2023-03-03T03:14:40.515Z,19.50
2023-03-03T03:17:11.852Z,17.90
2023-03-03T03:19:42.862Z,19.38
2023-03-03T03:22:13.253Z,19.63
2023-03-03T03:24:43.617Z,19.38
2023-03-03T03:27:16.687Z,20.73
2023-03-03T03:29:47.511Z,19.98
2023-03-03T03:32:18.365Z,20.92
2023-03-03T03:34:48.927Z,19.80
2023-03-03T03:37:19.583Z,20.20
2023-03-03T03:39:50.615Z,20.15
2023-03-03T03:42:25.476Z,21.00
2023-03-03T03:44:56.163Z,19.90
2023-03-03T03:47:26.636Z,19.88
2023-03-03T03:49:57.910Z,18.95
2023-03-03T03:52:28.756Z,18.83
2023-03-03T03:54:59.131Z,19.05
2023-03-03T03:57:32.160Z,19.23
2023-03-03T04:00:03.166Z,18.35
2023-03-03T04:02:44.363Z,18.10
2023-03-03T04:05:17.885Z,18.23
2023-03-03T04:07:48.428Z,17.45
2023-03-03T04:10:21.021Z,19.58
2023-03-03T04:12:55.365Z,17.52
2023-03-03T04:15:27.442Z,18.38
2023-03-03T04:17:58.487Z,19.33
2023-03-03T04:20:29.952Z,18.92
2023-03-03T04:23:04.168Z,20.00
2023-03-03T04:25:36.083Z,19.08
2023-03-03T04:28:19.136Z,21.27
2023-03-03T04:30:51.435Z,18.77
2023-03-03T04:33:24.013Z,19.25
2023-03-03T04:35:54.823Z,19.42
2023-03-03T04:38:26.385Z,21.35
2023-03-03T04:40:59.002Z,21.92
2023-03-03T04:43:34.935Z,22.77
2023-03-03T04:46:06.122Z,22.75
2023-03-03T04:48:38.628Z,23.45
2023-03-03T04:51:09.369Z,23.55
2023-03-03T04:53:40.798Z,25.15
2023-03-03T04:56:13.102Z,23.55
2023-03-03T04:58:46.224Z,24.55
2023-03-03T05:01:17.358Z,24.08
2023-03-03T05:03:48.612Z,23.95
2023-03-03T05:06:19.678Z,25.25
2023-03-03T05:08:50.294Z,26.00
2023-03-03T05:11:20.643Z,27.23
2023-03-03T05:13:53.770Z,26.23
2023-03-03T05:16:24.565Z,26.23
2023-03-03T05:18:55.017Z,25.52
2023-03-03T05:21:25.446Z,26.50
2023-03-03T05:23:56.302Z,25.95
2023-03-03T05:26:26.659Z,25.55
2023-03-03T05:28:59.611Z,27.23
2023-03-03T05:31:30.048Z,25.60
2023-03-03T05:34:00.426Z,25.83
2023-03-03T05:36:30.898Z,27.27
2023-03-03T05:39:01.289Z,27.05
2023-03-03T05:41:31.637Z,25.45
2023-03-03T05:44:04.632Z,27.55
2023-03-03T05:46:35.359Z,27.88
2023-03-03T05:49:05.717Z,28.20
2023-03-03T05:51:36.024Z,27.27
2023-03-03T05:54:06.382Z,28.30
2023-03-03T05:56:36.818Z,27.23
2023-03-03T05:59:09.730Z,27.05
2023-03-03T06:01:40.220Z,29.25
2023-03-03T06:04:10.710Z,29.70
2023-03-03T06:06:41.090Z,29.58
2023-03-03T06:09:11.374Z,30.00
2023-03-03T06:11:41.706Z,27.95
2023-03-03T06:14:14.642Z,30.20
2023-03-03T06:16:44.953Z,29.67
2023-03-03T06:19:15.639Z,32.00
2023-03-03T06:21:47.146Z,32.15
2023-03-03T06:24:18.081Z,32.33
2023-03-03T06:26:49.148Z,31.65
2023-03-03T06:29:22.438Z,33.10
2023-03-03T06:31:53.073Z,33.45
2023-03-03T06:34:23.705Z,33.45
2023-03-03T06:36:54.073Z,32.45
2023-03-03T06:39:24.641Z,32.65
2023-03-03T06:41:55.272Z,35.08
2023-03-03T06:44:28.918Z,33.47
2023-03-03T06:46:59.986Z,32.83
2023-03-03T06:49:30.434Z,34.85
2023-03-03T06:52:02.401Z,34.00
2023-03-03T06:54:33.182Z,34.13
2023-03-03T06:57:07.005Z,34.33
2023-03-03T06:59:39.937Z,35.78
2023-03-03T07:02:17.356Z,35.83
2023-03-03T07:04:48.534Z,36.25
2023-03-03T07:07:23.170Z,35.40
2023-03-03T07:09:55.600Z,36.40
2023-03-03T07:12:29.065Z,37.25
2023-03-03T07:15:15.332Z,36.75
2023-03-03T07:17:51.142Z,36.45
2023-03-03T07:20:38.546Z,36.35
2023-03-03T07:23:23.794Z,37.45
2023-03-03T07:25:56.879Z,36.70
2023-03-03T07:28:29.528Z,36.10
2023-03-03T07:31:02.723Z,37.75
2023-03-03T07:33:37.720Z,37.47
2023-03-03T07:36:22.937Z,38.33
2023-03-03T07:38:56.865Z,36.85
2023-03-03T07:41:29.840Z,36.50
2023-03-03T07:44:07.891Z,36.38
2023-03-03T07:46:48.489Z,36.72
2023-03-03T07:49:36.959Z,35.15
2023-03-03T07:52:31.671Z,35.47
2023-03-03T07:55:05.399Z,37.25
2023-03-03T07:57:40.828Z,36.50
2023-03-03T08:00:52.668Z,35.88
2023-03-03T08:03:25.862Z,35.30
2023-03-03T08:05:56.741Z,35.20
2023-03-03T08:08:37.181Z,36.72
2023-03-03T08:11:09.786Z,35.53
2023-03-03T08:13:41.942Z,34.88
2023-03-03T08:16:31.917Z,35.13
2023-03-03T08:19:06.708Z,33.50
2023-03-03T08:21:38.212Z,35.13
2023-03-03T08:24:09.442Z,34.63
2023-03-03T08:26:40.393Z,34.15
2023-03-03T08:29:12.083Z,33.67
2023-03-03T08:31:42.452Z,33.45
2023-03-03T08:34:15.419Z,34.55
2023-03-03T08:36:47.475Z,33.25
2023-03-03T08:39:17.782Z,33.38
2023-03-03T08:41:48.102Z,35.50
2023-03-03T08:44:19.725Z,34.28
2023-03-03T08:46:50.174Z,33.85
2023-03-03T08:49:24.131Z,32.53
2023-03-03T08:51:55.709Z,32.45
2023-03-03T08:54:26.133Z,32.28
2023-03-03T08:56:56.466Z,32.85
2023-03-03T08:59:26.899Z,33.45
2023-03-03T09:02:01.029Z,32.35
2023-03-03T09:04:34.174Z,32.45
2023-03-03T09:07:04.675Z,32.80
2023-03-03T09:09:37.486Z,32.22
2023-03-03T09:12:17.748Z,33.67
2023-03-03T09:14:49.707Z,30.95
2023-03-03T09:17:28.275Z,30.98
2023-03-03T09:20:05.382Z,31.42
2023-03-03T09:22:39.453Z,30.77
2023-03-03T09:25:22.879Z,30.20
2023-03-03T09:27:55.590Z,30.80
2023-03-03T09:30:44.326Z,29.65
2023-03-03T09:33:28.238Z,30.30
2023-03-03T09:36:08.927Z,30.30
2023-03-03T09:38:46.443Z,27.10
2023-03-03T09:41:47.903Z,30.77
2023-03-03T09:44:34.367Z,26.25
2023-03-03T09:47:22.301Z,26.42
2023-03-03T09:50:02.711Z,26.73
2023-03-03T09:52:43.423Z,25.58
2023-03-03T09:55:29.531Z,27.73
2023-03-03T09:58:14.583Z,27.05
2023-03-03T10:00:58.223Z,24.58
2023-03-03T10:04:01.729Z,26.42
2023-03-03T10:06:37.090Z,25.73
2023-03-03T10:09:41.139Z,24.35
2023-03-03T10:12:17.906Z,24.65
2023-03-03T10:15:14.736Z,25.35
2023-03-03T10:17:53.310Z,25.90
2023-03-03T10:20:49.616Z,26.13
2023-03-03T10:23:38.644Z,25.77
2023-03-03T10:26:29.025Z,25.10
2023-03-03T10:29:26.524Z,24.48
2023-03-03T10:32:12.690Z,25.13
2023-03-03T10:34:56.624Z,24.63
2023-03-03T10:37:34.460Z,23.75
2023-03-03T10:40:19.889Z,25.20
2023-03-03T10:43:07.015Z,24.08
2023-03-03T10:45:55.836Z,23.75
2023-03-03T10:48:54.426Z,25.02
2023-03-03T10:51:31.008Z,23.25
2023-03-03T10:54:15.314Z,25.05
2023-03-03T10:56:53.994Z,23.33
2023-03-03T10:59:50.602Z,22.52
2023-03-03T11:02:26.030Z,22.60
2023-03-03T11:05:10.162Z,22.42
2023-03-03T11:07:45.581Z,21.40
2023-03-03T11:10:26.211Z,22.17
2023-03-03T11:13:10.996Z,22.52
2023-03-03T11:15:52.825Z,21.15
2023-03-03T11:18:39.351Z,20.65
2023-03-03T11:21:22.407Z,21.05
2023-03-03T11:24:13.791Z,20.63
2023-03-03T11:27:08.854Z,19.40
2023-03-03T11:30:02.134Z,20.95
2023-03-03T11:32:43.609Z,20.55
2023-03-03T11:35:29.069Z,20.33
2023-03-03T11:38:08.107Z,20.90
2023-03-03T11:40:48.154Z,20.15
2023-03-03T11:43:36.052Z,17.85
2023-03-03T11:46:09.995Z,20.58
2023-03-03T11:48:50.200Z,20.75
2023-03-03T11:51:26.353Z,21.20
2023-03-03T11:54:02.452Z,24.17
2023-03-03T11:56:38.923Z,18.07
2023-03-03T11:59:44.395Z,25.17
2023-03-03T12:02:34.974Z,20.83
2023-03-03T12:05:17.001Z,18.88
2023-03-03T12:07:56.051Z,18.77
2023-03-03T12:10:34.710Z,18.70
2023-03-03T12:13:11.309Z,17.80
2023-03-03T12:15:49.332Z,18.38
2023-03-03T12:18:38.353Z,19.20
2023-03-03T12:21:30.714Z,18.17
2023-03-03T12:24:22.650Z,17.48
2023-03-03T12:27:04.327Z,19.15
2023-03-03T12:29:46.884Z,18.23
2023-03-03T12:32:30.583Z,18.17
2023-03-03T12:35:09.894Z,17.52
2023-03-03T12:37:57.701Z,17.98
2023-03-03T12:40:31.938Z,16.63
2023-03-03T12:43:25.538Z,17.38
2023-03-03T12:46:07.132Z,18.63
2023-03-03T12:48:44.306Z,16.65
2023-03-03T12:51:25.233Z,16.23
2023-03-03T12:54:20.203Z,17.33
2023-03-03T12:56:56.676Z,16.35
2023-03-03T12:59:39.239Z,17.65
2023-03-03T13:02:41.403Z,14.63
2023-03-03T13:05:28.818Z,15.50
2023-03-03T13:08:17.297Z,15.18
2023-03-03T13:10:58.938Z,16.58
2023-03-03T13:13:37.901Z,17.23
2023-03-03T13:16:17.149Z,16.17
2023-03-03T13:18:59.362Z,16.08
2023-03-03T13:21:36.983Z,17.33
2023-03-03T13:24:17.847Z,17.60
2023-03-03T13:26:56.124Z,17.13
2023-03-03T13:29:30.872Z,16.67
2023-03-03T13:32:05.084Z,16.45
2023-03-03T13:34:45.155Z,15.95
2023-03-03T13:37:20.702Z,17.05
2023-03-03T13:40:00.511Z,17.17
2023-03-03T13:42:41.710Z,17.23
2023-03-03T13:45:22.581Z,18.27
2023-03-03T13:48:03.627Z,17.60
2023-03-03T13:50:41.371Z,16.92
2023-03-03T13:53:36.996Z,17.17
2023-03-03T13:56:15.088Z,16.85
2023-03-03T13:58:59.939Z,16.10
2023-03-03T14:01:37.295Z,15.07
2023-03-03T14:04:16.952Z,17.38
2023-03-03T14:06:56.810Z,17.13
2023-03-03T14:09:48.615Z,16.95
2023-03-03T14:12:28.818Z,16.90
2023-03-03T14:15:10.252Z,17.80
2023-03-03T14:17:47.805Z,17.05
2023-03-03T14:20:26.375Z,15.50
2023-03-03T14:22:59.892Z,17.25
2023-03-03T14:25:30.347Z,16.08
2023-03-03T14:28:14.106Z,16.25
2023-03-03T14:30:48.031Z,15.38
2023-03-03T14:33:23.518Z,15.55
2023-03-03T14:36:04.284Z,13.93
2023-03-03T14:38:47.852Z,12.90
2023-03-03T14:41:21.497Z,12.57
2023-03-03T14:44:03.792Z,11.82
2023-03-03T14:46:40.450Z,12.43
2023-03-03T14:49:18.774Z,12.45
2023-03-03T14:51:52.665Z,11.25
2023-03-03T14:54:29.883Z,11.15
2023-03-03T14:57:14.574Z,9.85
2023-03-03T14:59:59.383Z,10.80
2023-03-03T15:02:39.484Z,10.63
2023-03-03T15:05:21.428Z,9.65
2023-03-03T15:07:56.796Z,9.48
2023-03-03T15:10:36.427Z,9.57
2023-03-03T15:13:31.492Z,10.02
2023-03-03T15:16:12.286Z,10.57
2023-03-03T15:19:13.787Z,9.80
2023-03-03T15:21:51.409Z,10.18
2023-03-03T15:24:28.192Z,9.52
2023-03-03T15:27:02.731Z,10.48
2023-03-03T15:29:39.673Z,10.55
2023-03-03T15:34:51.409Z,9.50
2023-03-03T15:37:39.485Z,8.80
2023-03-03T15:40:22.254Z,8.60
2023-03-03T15:42:55.759Z,8.82
2023-03-03T15:45:33.880Z,8.20
2023-03-03T15:48:31.620Z,7.85
2023-03-03T15:51:15.086Z,9.07
2023-03-03T15:54:09.149Z,10.05
2023-03-03T15:56:48.610Z,8.82
2023-03-03T15:59:53.009Z,12.40
2023-03-03T16:02:25.607Z,8.60
2023-03-03T16:05:04.500Z,8.00
2023-03-03T16:07:47.971Z,8.45
2023-03-03T16:10:32.729Z,7.35
2023-03-03T16:13:19.974Z,9.60
2023-03-03T16:16:01.325Z,7.75
2023-03-03T16:18:42.992Z,7.88
2023-03-03T16:21:32.900Z,8.00
2023-03-03T16:24:22.733Z,7.50
2023-03-03T16:27:03.244Z,7.35
2023-03-03T16:29:50.052Z,7.72
2023-03-03T16:32:26.350Z,8.15
2023-03-03T16:35:01.139Z,6.93
2023-03-03T16:37:39.865Z,8.40
2023-03-03T16:40:23.120Z,6.95
2023-03-03T16:43:00.375Z,6.30
2023-03-03T16:45:35.714Z,7.25
2023-03-03T16:48:23.531Z,6.82
2023-03-03T16:51:23.616Z,6.72
2023-03-03T16:54:00.741Z,7.03
2023-03-03T16:56:41.655Z,6.53
2023-03-03T16:59:39.298Z,6.95
2023-03-03T17:02:57.139Z,6.35
2023-03-03T17:05:38.729Z,7.93
2023-03-03T17:08:36.726Z,8.98
2023-03-03T17:14:03.882Z,7.65
2023-03-03T17:16:51.918Z,6.40
2023-03-03T17:19:38.139Z,7.25
2023-03-03T17:22:20.400Z,6.57
2023-03-03T17:25:03.827Z,5.88
2023-03-03T17:27:48.271Z,7.03
2023-03-03T17:30:26.827Z,4.95
2023-03-03T17:33:16.896Z,4.55
2023-03-03T17:35:57.454Z,5.00
2023-03-03T17:38:37.824Z,4.97
2023-03-03T17:41:14.448Z,4.63
2023-03-03T17:43:54.740Z,5.05
2023-03-03T17:46:36.246Z,5.93
2023-03-03T17:49:28.674Z,4.40
2023-03-03T17:52:29.557Z,6.10
2023-03-03T17:55:14.696Z,4.32
2023-03-03T17:58:05.791Z,4.22
2023-03-03T18:00:46.731Z,3.72
2023-03-03T18:03:49.409Z,4.28
2023-03-03T18:07:06.001Z,4.53
2023-03-03T18:09:59.450Z,4.60
2023-03-03T18:12:41.838Z,5.80
2023-03-03T18:16:01.840Z,5.43
2023-03-03T18:18:58.528Z,5.00
2023-03-03T18:21:35.282Z,5.07
2023-03-03T18:24:32.892Z,4.97
2023-03-03T18:27:37.739Z,4.90
2023-03-03T18:30:25.271Z,5.13
2023-03-03T18:35:44.161Z,5.03
2023-03-03T18:38:42.178Z,6.07
2023-03-03T18:41:14.968Z,6.13
2023-03-03T18:44:00.051Z,6.43
2023-03-03T18:46:50.447Z,6.50
2023-03-03T18:49:21.408Z,5.90
2023-03-03T18:52:15.699Z,5.18
2023-03-03T18:54:46.252Z,6.18
2023-03-03T18:57:20.825Z,5.32
2023-03-03T19:00:13.712Z,6.30
2023-03-03T19:02:54.475Z,5.88
2023-03-03T19:05:29.141Z,6.38
2023-03-03T19:08:07.251Z,6.03
2023-03-03T19:10:55.443Z,5.50
2023-03-03T19:13:45.849Z,5.20
2023-03-03T19:16:38.050Z,5.25
2023-03-03T19:19:14.730Z,5.65
2023-03-03T19:21:48.242Z,6.35
2023-03-03T19:24:36.700Z,5.70
2023-03-03T19:27:22.927Z,6.38
2023-03-03T19:30:23.014Z,5.53
2023-03-03T19:33:14.372Z,5.82
2023-03-03T19:35:56.786Z,6.43
2023-03-03T19:38:36.301Z,6.78
2023-03-03T19:41:20.003Z,5.93
2023-03-03T19:44:00.750Z,5.50
2023-03-03T19:46:55.767Z,5.82
2023-03-03T19:49:49.241Z,6.30
2023-03-03T19:52:28.870Z,5.47
2023-03-03T19:55:19.644Z,6.03
2023-03-03T19:57:59.357Z,5.63
2023-03-03T20:00:39.508Z,4.88
2023-03-03T20:03:36.795Z,4.97
2023-03-03T20:06:21.401Z,5.90
2023-03-03T20:09:00.479Z,4.85
2023-03-03T20:11:49.724Z,5.35
2023-03-03T20:14:44.393Z,5.30
2023-03-03T20:17:39.017Z,4.47
2023-03-03T20:20:24.227Z,5.25
2023-03-03T20:23:05.216Z,5.13
2023-03-03T20:25:42.644Z,4.47
2023-03-03T20:28:34.664Z,5.68
2023-03-03T20:31:13.500Z,5.93
2023-03-03T20:33:53.623Z,5.38
2023-03-03T20:36:36.790Z,5.68
2023-03-03T20:39:13.160Z,5.72
2023-03-03T20:41:59.359Z,4.40
2023-03-03T20:44:44.256Z,4.55
2023-03-03T20:47:22.182Z,5.47
2023-03-03T20:50:06.892Z,5.38
2023-03-03T20:52:45.069Z,4.57
2023-03-03T20:55:25.330Z,5.18
2023-03-03T20:58:05.317Z,5.28
2023-03-03T21:00:43.406Z,5.63
2023-03-03T21:03:22.949Z,5.07
2023-03-03T21:05:59.930Z,5.78
2023-03-03T21:11:20.982Z,4.78
2023-03-03T21:13:54.348Z,5.00
2023-03-03T21:16:35.942Z,5.40
2023-03-03T21:19:09.250Z,5.43
2023-03-03T21:21:41.148Z,6.95
2023-03-03T21:24:19.735Z,6.88
2023-03-03T21:26:55.664Z,6.32
2023-03-03T21:29:28.932Z,6.50
2023-03-03T21:32:00.486Z,6.00
2023-03-03T21:34:32.995Z,5.75
2023-03-03T21:37:04.851Z,6.60
2023-03-03T21:39:37.011Z,5.90
2023-03-03T21:42:11.495Z,6.60
2023-03-03T21:44:44.203Z,6.07
2023-03-03T21:47:15.858Z,6.25
2023-03-03T21:49:46.785Z,5.70
2023-03-03T21:52:19.213Z,7.60
2023-03-03T21:54:51.090Z,7.18
2023-03-03T21:57:25.176Z,6.32
2023-03-03T21:59:56.244Z,7.25
2023-03-03T22:02:27.119Z,6.93
2023-03-03T22:04:58.273Z,6.97
2023-03-03T22:07:29.194Z,6.75
2023-03-03T22:10:00.008Z,6.80
2023-03-03T22:12:33.483Z,6.15
2023-03-03T22:15:04.339Z,6.93
2023-03-03T22:17:35.222Z,6.50
2023-03-03T22:20:06.164Z,7.13
2023-03-03T22:22:37.080Z,7.85
2023-03-03T22:25:08.621Z,9.55
2023-03-03T22:27:41.969Z,9.60
2023-03-03T22:30:14.422Z,7.95
2023-03-03T22:32:45.337Z,8.57
2023-03-03T22:35:16.424Z,11.80
2023-03-03T22:37:47.687Z,20.20
2023-03-03T22:40:18.603Z,21.00
2023-03-03T22:42:52.035Z,20.35
2023-03-03T22:45:22.874Z,17.80
2023-03-03T22:47:53.651Z,22.65
2023-03-03T22:50:24.373Z,22.95
2023-03-03T22:52:55.282Z,21.65
2023-03-03T22:55:26.111Z,21.17
2023-03-03T22:57:59.534Z,15.73
2023-03-03T23:00:30.409Z,16.85
2023-03-03T23:03:01.322Z,20.85
2023-03-03T23:05:32.137Z,18.35
2023-03-03T23:08:03.130Z,19.08
2023-03-03T23:10:33.849Z,14.32
2023-03-03T23:13:07.609Z,11.15
2023-03-03T23:15:38.906Z,13.05
2023-03-03T23:18:10.230Z,13.10
2023-03-03T23:20:46.090Z,12.43
2023-03-03T23:23:17.029Z,10.93
2023-03-03T23:25:47.875Z,10.10
2023-03-03T23:28:21.321Z,7.38
2023-03-03T23:30:52.537Z,8.02
2023-03-03T23:33:23.398Z,9.73
2023-03-03T23:35:54.422Z,10.52
2023-03-03T23:38:25.220Z,9.15
2023-03-03T23:40:56.118Z,9.48
2023-03-03T23:43:29.531Z,8.25
2023-03-03T23:46:00.360Z,7.28
2023-03-03T23:48:31.168Z,7.85
2023-03-03T23:51:02.874Z,7.13
2023-03-03T23:53:33.672Z,6.45
2023-03-03T23:56:05.449Z,6.82
2023-03-03T23:58:41.072Z,7.10
